createdAt,value
2024-03-02T00:00:14.236Z,96093.63
2024-03-02T00:02:47.752Z,96104.13
2024-03-02T00:05:16.223Z,96092.59
2024-03-02T00:07:44.008Z,96099.91
2024-03-02T00:10:12.864Z,96107.03
2024-03-02T00:12:40.434Z,96102.47
2024-03-02T00:15:43.043Z,96103.88
2024-03-02T00:18:12.826Z,96097.63
2024-03-02T00:20:40.091Z,96097.28
2024-03-02T00:23:08.677Z,96097.81
2024-03-02T00:25:42.333Z,96100.13
2024-03-02T00:28:19.785Z,96096.66
2024-03-02T00:30:53.289Z,96087.88
2024-03-02T00:33:21.186Z,96094.53
2024-03-02T00:35:48.222Z,96097.28
2024-03-02T00:38:16.621Z,96095.66
2024-03-02T00:40:44.068Z,96098.34
2024-03-02T00:43:47.267Z,96099.91
2024-03-02T00:46:19.416Z,96104.13
2024-03-02T00:48:52.312Z,96106.47
2024-03-02T00:51:19.034Z,96103.66
2024-03-02T00:53:46.104Z,96101.63
2024-03-02T00:56:15.468Z,96097.47
2024-03-02T00:58:41.994Z,96108.84
2024-03-02T01:01:08.831Z,96108.03
2024-03-02T01:03:35.555Z,96102.09
2024-03-02T01:06:02.197Z,96098.78
2024-03-02T01:08:28.780Z,96106.72
2024-03-02T01:10:55.848Z,96099.13
2024-03-02T01:13:24.203Z,96111.59
2024-03-02T01:15:51.277Z,96107.56
2024-03-02T01:18:17.962Z,96108.03
2024-03-02T01:20:44.653Z,96100.63
2024-03-02T01:23:11.236Z,96104.50
2024-03-02T01:25:37.883Z,96104.50
2024-03-02T01:28:05.477Z,96097.19
2024-03-02T01:30:31.999Z,96096.53
2024-03-02T01:33:00.101Z,96090.13
2024-03-02T01:35:28.282Z,96088.00
2024-03-02T01:37:55.237Z,96084.78
2024-03-02T01:40:21.972Z,96089.31
2024-03-02T01:42:48.598Z,96083.94
2024-03-02T01:45:15.203Z,96086.72
2024-03-02T01:47:41.761Z,96083.63
2024-03-02T01:50:09.420Z,96084.34
2024-03-02T01:52:36.005Z,96086.03
2024-03-02T01:55:02.510Z,96090.97
2024-03-02T01:57:29.018Z,96087.13
2024-03-02T01:59:55.601Z,96087.25
2024-03-02T02:02:22.385Z,96081.66
2024-03-02T02:04:48.867Z,96089.56
2024-03-02T02:07:15.515Z,96089.03
2024-03-02T02:09:43.154Z,96081.66
2024-03-02T02:12:10.963Z,96077.69
2024-03-02T02:14:38.216Z,96079.84
2024-03-02T02:17:04.953Z,96066.59
2024-03-02T02:19:31.400Z,96073.31
2024-03-02T02:21:57.976Z,96074.38
2024-03-02T02:24:24.523Z,96077.03
2024-03-02T02:26:51.024Z,96074.59
2024-03-02T02:29:17.555Z,96072.97
2024-03-02T02:31:44.010Z,96073.53
2024-03-02T02:34:10.700Z,96073.13
2024-03-02T02:36:40.978Z,96069.53
2024-03-02T02:39:09.892Z,96068.38
2024-03-02T02:41:36.356Z,96066.88
2024-03-02T02:44:02.870Z,96064.91
2024-03-02T02:46:29.329Z,96060.41
2024-03-02T02:48:55.880Z,96048.78
2024-03-02T02:51:22.518Z,96054.63
2024-03-02T02:53:48.969Z,96062.97
2024-03-02T02:56:15.451Z,96067.63
2024-03-02T02:58:42.909Z,96059.13
2024-03-02T03:01:09.677Z,96062.72
2024-03-02T03:03:36.303Z,96063.97
2024-03-02T03:06:03.432Z,96061.41
2024-03-02T03:08:30.022Z,96065.34
2024-03-02T03:10:56.761Z,96066.16
2024-03-02T03:13:23.834Z,96066.31
2024-03-02T03:15:50.467Z,96062.81
2024-03-02T03:18:17.135Z,96062.72
2024-03-02T03:20:43.745Z,96066.69
2024-03-02T03:23:10.187Z,96064.34
2024-03-02T03:25:36.617Z,96065.53
2024-03-02T03:28:03.310Z,96063.66
2024-03-02T03:30:30.303Z,96063.00
2024-03-02T03:32:57.093Z,96063.25
2024-03-02T03:35:23.875Z,96062.19
2024-03-02T03:37:50.394Z,96073.81
2024-03-02T03:40:17.094Z,96063.38
2024-03-02T03:42:43.728Z,96073.00
2024-03-02T03:45:10.436Z,96062.91
2024-03-02T03:47:37.195Z,96064.75
2024-03-02T03:50:06.853Z,96062.53
2024-03-02T03:52:33.647Z,96065.94
2024-03-02T03:55:01.306Z,96057.66
2024-03-02T03:57:28.502Z,96066.75
2024-03-02T03:59:55.038Z,96060.56
2024-03-02T04:02:21.542Z,96054.44
2024-03-02T04:04:48.010Z,96060.25
2024-03-02T04:07:14.495Z,96066.75
2024-03-02T04:09:40.983Z,96063.72
2024-03-02T04:12:07.625Z,96068.38
2024-03-02T04:14:34.088Z,96065.22
2024-03-02T04:17:01.237Z,96071.38
2024-03-02T04:19:27.751Z,96076.38
2024-03-02T04:21:54.296Z,96073.94
2024-03-02T04:24:20.868Z,96077.44
2024-03-02T04:26:47.301Z,96074.31
2024-03-02T04:29:14.058Z,96073.47
2024-03-02T04:31:40.598Z,96068.97
2024-03-02T04:34:07.186Z,96072.66
2024-03-02T04:36:34.284Z,96069.09
2024-03-02T04:39:00.906Z,96065.38
2024-03-02T04:41:27.418Z,96064.53
2024-03-02T04:43:53.891Z,96063.94
2024-03-02T04:46:20.373Z,96058.94
2024-03-02T04:48:46.884Z,96076.84
2024-03-02T04:51:14.556Z,96070.81
2024-03-02T04:53:41.012Z,96064.50
2024-03-02T04:56:26.308Z,96073.63
2024-03-02T04:58:52.746Z,96066.50
2024-03-02T05:01:19.319Z,96071.38
2024-03-02T05:03:46.355Z,96070.47
2024-03-02T05:06:12.896Z,96067.69
2024-03-02T05:08:39.318Z,96065.47
2024-03-02T05:11:24.376Z,96067.50
2024-03-02T05:13:50.890Z,96070.19
2024-03-02T05:16:17.491Z,96069.13
2024-03-02T05:18:43.995Z,96068.16
2024-03-02T05:21:10.456Z,96070.59
2024-03-02T05:23:36.904Z,96077.25
2024-03-02T05:26:03.884Z,96074.78
2024-03-02T05:28:30.421Z,96076.19
2024-03-02T05:30:57.202Z,96081.06
2024-03-02T05:33:23.891Z,96084.56
2024-03-02T05:35:53.504Z,96084.22
2024-03-02T05:38:19.995Z,96085.25
2024-03-02T05:40:46.465Z,96083.53
2024-03-02T05:43:13.090Z,96078.56
2024-03-02T05:45:40.619Z,96090.19
2024-03-02T05:48:08.763Z,96081.47
2024-03-02T05:50:35.274Z,96081.00
2024-03-02T05:53:01.871Z,96091.44
2024-03-02T05:55:28.397Z,96086.59
2024-03-02T05:58:06.673Z,96075.75
2024-03-02T06:00:33.626Z,96079.91
2024-03-02T06:03:00.117Z,96080.25
2024-03-02T06:05:26.648Z,96078.72
2024-03-02T06:07:53.180Z,96079.41
2024-03-02T06:10:20.005Z,96085.91
2024-03-02T06:12:46.881Z,96089.03
2024-03-02T06:15:13.448Z,96090.19
2024-03-02T06:17:40.019Z,96086.13
2024-03-02T06:20:09.158Z,96090.66
2024-03-02T06:22:36.083Z,96083.00
2024-03-02T06:25:02.605Z,96086.97
2024-03-02T06:27:29.156Z,96086.25
2024-03-02T06:29:56.004Z,96097.06
2024-03-02T06:32:24.062Z,96088.41
2024-03-02T06:34:50.560Z,96098.06
2024-03-02T06:37:17.288Z,96098.41
2024-03-02T06:39:44.518Z,96097.34
2024-03-02T06:42:11.004Z,96106.75
2024-03-02T06:44:37.598Z,96098.25
2024-03-02T06:47:04.173Z,96103.38
2024-03-02T06:49:30.697Z,96100.94
2024-03-02T06:51:57.679Z,96099.31
2024-03-02T06:54:24.192Z,96096.63
2024-03-02T06:56:50.722Z,96096.88
2024-03-02T06:59:17.283Z,96099.63
2024-03-02T07:01:44.593Z,96088.78
2024-03-02T07:04:11.086Z,96099.94
2024-03-02T07:06:37.641Z,96102.31
2024-03-02T07:09:04.304Z,96107.19
2024-03-02T07:11:30.820Z,96108.91
2024-03-02T07:13:57.610Z,96110.63
2024-03-02T07:16:31.064Z,96110.50
2024-03-02T07:18:58.017Z,96115.47
2024-03-02T07:21:24.747Z,96111.41
2024-03-02T07:23:51.982Z,96110.44
2024-03-02T07:28:51.616Z,96106.59
2024-03-02T07:31:18.505Z,96109.03
2024-03-02T07:33:46.692Z,96109.53
2024-03-02T07:36:14.055Z,96112.03
2024-03-02T07:38:41.652Z,96108.53
2024-03-02T07:41:09.751Z,96119.00
2024-03-02T07:43:36.288Z,96114.22
2024-03-02T07:46:04.102Z,96121.22
2024-03-02T07:48:32.238Z,96113.50
2024-03-02T07:50:58.941Z,96124.13
2024-03-02T07:53:25.465Z,96122.59
2024-03-02T07:55:52.058Z,96121.53
2024-03-02T07:58:20.481Z,96123.75
2024-03-02T08:00:47.444Z,96123.03
2024-03-02T08:03:14.781Z,96121.00
2024-03-02T08:05:41.541Z,96131.31
2024-03-02T08:08:08.008Z,96124.34
2024-03-02T08:10:34.961Z,96116.00
2024-03-02T08:13:01.593Z,96120.22
2024-03-02T08:15:28.185Z,96113.53
2024-03-02T08:17:54.807Z,96120.69
2024-03-02T08:20:21.395Z,96120.03
2024-03-02T08:22:48.320Z,96116.25
2024-03-02T08:25:15.000Z,96112.41
2024-03-02T08:27:41.689Z,96112.22
2024-03-02T08:30:09.486Z,96113.75
2024-03-02T08:32:36.120Z,96101.50
2024-03-02T08:35:02.656Z,96104.53
2024-03-02T08:37:29.268Z,96103.38
2024-03-02T08:39:56.175Z,96116.66
2024-03-02T08:42:23.585Z,96115.44
2024-03-02T08:44:50.770Z,96099.41
2024-03-02T08:47:17.490Z,96116.47
2024-03-02T08:49:44.229Z,96114.44
2024-03-02T08:52:10.951Z,96110.78
2024-03-02T08:54:37.648Z,96110.75
2024-03-02T08:57:04.370Z,96109.47
2024-03-02T08:59:30.894Z,96110.88
2024-03-02T09:01:57.942Z,96113.38
2024-03-02T09:04:27.154Z,96115.88
2024-03-02T09:06:54.609Z,96112.72
2024-03-02T09:09:21.264Z,96114.38
2024-03-02T09:11:48.286Z,96115.00
2024-03-02T09:14:18.521Z,96111.53
2024-03-02T09:16:45.240Z,96110.50
2024-03-02T09:19:11.987Z,96105.97
2024-03-02T09:21:38.855Z,96110.94
2024-03-02T09:24:07.692Z,96102.09
2024-03-02T09:26:34.300Z,96099.41
2024-03-02T09:29:00.854Z,96088.13
2024-03-02T09:31:27.359Z,96090.06
2024-03-02T09:33:54.081Z,96085.50
2024-03-02T09:36:23.260Z,96084.97
2024-03-02T09:38:50.046Z,96087.16
2024-03-02T09:41:16.633Z,96084.19
2024-03-02T09:43:43.311Z,96080.97
2024-03-02T09:46:12.885Z,96082.84
2024-03-02T09:48:40.128Z,96078.50
2024-03-02T09:51:06.788Z,96080.38
2024-03-02T09:53:35.235Z,96071.44
2024-03-02T09:56:02.483Z,96078.44
2024-03-02T09:58:29.667Z,96071.94
2024-03-02T10:00:56.280Z,96079.16
2024-03-02T10:03:27.982Z,96081.56
2024-03-02T10:05:54.476Z,96079.91
2024-03-02T10:08:21.044Z,96082.59
2024-03-02T10:10:47.649Z,96080.44
2024-03-02T10:13:14.839Z,96084.47
2024-03-02T10:15:42.765Z,96077.41
2024-03-02T10:18:12.748Z,96080.09
2024-03-02T10:20:40.617Z,96079.28
2024-03-02T10:23:14.825Z,96071.63
2024-03-02T10:25:50.912Z,96070.50
2024-03-02T10:28:21.578Z,96076.59
2024-03-02T10:30:49.890Z,96075.50
2024-03-02T10:33:18.521Z,96073.91
2024-03-02T10:35:45.261Z,96075.72
2024-03-02T10:38:12.488Z,96070.28
2024-03-02T10:40:39.021Z,96065.69
2024-03-02T10:43:07.082Z,96067.25
2024-03-02T10:45:34.343Z,96068.31
2024-03-02T10:48:03.350Z,96057.38
2024-03-02T10:50:30.059Z,96063.84
2024-03-02T10:52:56.613Z,96058.16
2024-03-02T10:55:23.281Z,96052.75
2024-03-02T10:57:54.776Z,96049.41
2024-03-02T11:00:26.017Z,96047.00
2024-03-02T11:02:58.037Z,96039.78
2024-03-02T11:05:29.441Z,96040.28
2024-03-02T11:08:04.129Z,96041.78
2024-03-02T11:11:04.572Z,96043.06
2024-03-02T11:13:38.533Z,96033.72
2024-03-02T11:16:33.777Z,96029.78
2024-03-02T11:19:01.518Z,96037.78
2024-03-02T11:21:28.345Z,96022.69
2024-03-02T11:23:54.902Z,96023.66
2024-03-02T11:26:23.595Z,96007.84
2024-03-02T11:28:50.349Z,96006.31
2024-03-02T11:31:16.807Z,96000.53
2024-03-02T11:33:44.028Z,96000.81
2024-03-02T11:36:12.536Z,95998.09
2024-03-02T11:38:39.531Z,95997.00
2024-03-02T11:41:10.220Z,95985.50
2024-03-02T11:43:40.864Z,95991.00
2024-03-02T11:46:11.218Z,95991.28
2024-03-02T11:48:39.080Z,95992.53
2024-03-02T11:51:05.757Z,95997.28
2024-03-02T11:53:36.242Z,95989.09
2024-03-02T11:56:03.716Z,95981.53
2024-03-02T11:58:31.197Z,95983.59
2024-03-02T12:00:58.182Z,95971.44
2024-03-02T12:03:29.820Z,95968.69
2024-03-02T12:05:56.521Z,95969.63
2024-03-02T12:08:24.581Z,95970.13
2024-03-02T12:11:02.835Z,95963.31
2024-03-02T12:13:30.305Z,95958.09
2024-03-02T12:15:57.401Z,95959.81
2024-03-02T12:18:24.151Z,95951.97
2024-03-02T12:20:58.183Z,95949.25
2024-03-02T12:23:24.809Z,95949.88
2024-03-02T12:25:51.818Z,95942.03
2024-03-02T12:28:18.728Z,95942.75
2024-03-02T12:30:46.216Z,95944.56
2024-03-02T12:33:12.933Z,95936.41
2024-03-02T12:35:40.632Z,95930.16
2024-03-02T12:38:07.153Z,95938.72
2024-03-02T12:40:33.729Z,95928.97
2024-03-02T12:43:00.274Z,95923.31
2024-03-02T12:45:27.037Z,95918.47
2024-03-02T12:47:54.229Z,95922.03
2024-03-02T12:50:21.751Z,95930.56
2024-03-02T12:52:55.340Z,95923.31
2024-03-02T12:55:23.608Z,95926.22
2024-03-02T12:57:54.303Z,95925.50
2024-03-02T13:00:22.225Z,95924.34
2024-03-02T13:02:50.085Z,95918.63
2024-03-02T13:05:16.936Z,95916.50
2024-03-02T13:07:43.772Z,95920.03
2024-03-02T13:10:10.578Z,95913.47
2024-03-02T13:12:38.221Z,95907.34
2024-03-02T13:15:06.600Z,95906.91
2024-03-02T13:17:38.198Z,95913.47
2024-03-02T13:20:09.276Z,95914.75
2024-03-02T13:22:36.158Z,95907.78
2024-03-02T13:25:05.292Z,95904.25
2024-03-02T13:27:35.539Z,95913.41
2024-03-02T13:30:06.939Z,95903.88
2024-03-02T13:32:33.783Z,95902.19
2024-03-02T13:35:01.309Z,95901.19
2024-03-02T13:37:28.080Z,95892.19
2024-03-02T13:39:54.599Z,95900.31
2024-03-02T13:42:21.123Z,95897.53
2024-03-02T13:44:49.370Z,95891.28
2024-03-02T13:47:15.972Z,95888.00
2024-03-02T13:49:46.595Z,95885.09
2024-03-02T13:52:18.252Z,95879.16
2024-03-02T13:54:46.915Z,95873.78
2024-03-02T13:57:14.385Z,95876.81
2024-03-02T13:59:42.849Z,95879.38
2024-03-02T14:02:09.956Z,95877.59
2024-03-02T14:04:38.476Z,95865.84
2024-03-02T14:07:08.213Z,95871.06
2024-03-02T14:09:35.377Z,95869.16
2024-03-02T14:12:02.018Z,95866.28
2024-03-02T14:14:28.513Z,95860.50
2024-03-02T14:17:01.733Z,95865.69
2024-03-02T14:19:28.550Z,95862.41
2024-03-02T14:21:55.180Z,95863.47
2024-03-02T14:24:25.132Z,95861.81
2024-03-02T14:26:51.927Z,95860.75
2024-03-02T14:29:20.367Z,95864.59
2024-03-02T14:31:49.275Z,95856.66
2024-03-02T14:34:16.656Z,95861.38
2024-03-02T14:36:45.127Z,95853.31
2024-03-02T14:39:12.378Z,95857.53
2024-03-02T14:41:38.907Z,95846.56
2024-03-02T14:44:05.509Z,95843.38
2024-03-02T14:46:32.219Z,95846.59
2024-03-02T14:48:59.293Z,95837.34
2024-03-02T14:51:25.892Z,95830.00
2024-03-02T14:53:52.723Z,95832.63
2024-03-02T14:56:19.275Z,95827.00
2024-03-02T14:58:46.643Z,95826.94
2024-03-02T15:01:13.420Z,95826.28
2024-03-02T15:03:40.860Z,95815.75
2024-03-02T15:06:08.731Z,95822.53
2024-03-02T15:08:35.280Z,95823.22
2024-03-02T15:11:02.356Z,95820.53
2024-03-02T15:13:28.953Z,95814.50
2024-03-02T15:15:55.519Z,95802.91
2024-03-02T15:18:22.172Z,95797.78
2024-03-02T15:20:48.828Z,95797.03
2024-03-02T15:23:15.294Z,95794.63
2024-03-02T15:25:42.169Z,95789.19
2024-03-02T15:28:08.910Z,95787.06
2024-03-02T15:30:35.708Z,95778.59
2024-03-02T15:33:02.272Z,95779.31
2024-03-02T15:35:28.893Z,95780.91
2024-03-02T15:37:55.404Z,95773.34
2024-03-02T15:40:21.957Z,95776.69
2024-03-02T15:42:48.577Z,95769.47
2024-03-02T15:45:15.209Z,95767.44
2024-03-02T15:47:41.987Z,95767.16
2024-03-02T15:50:09.314Z,95764.56
2024-03-02T15:52:35.852Z,95769.78
2024-03-02T15:55:07.351Z,95768.00
2024-03-02T15:57:34.386Z,95763.69
2024-03-02T16:00:01.214Z,95761.03
2024-03-02T16:02:38.054Z,95770.34
2024-03-02T16:05:05.153Z,95767.16
2024-03-02T16:07:33.009Z,95770.97
2024-03-02T16:09:59.657Z,95775.69
2024-03-02T16:12:26.146Z,95771.00
2024-03-02T16:14:52.712Z,95774.53
2024-03-02T16:17:19.191Z,95771.88
2024-03-02T16:19:45.853Z,95773.78
2024-03-02T16:22:12.727Z,95783.00
2024-03-02T16:24:39.360Z,95781.47
2024-03-02T16:27:05.893Z,95776.94
2024-03-02T16:29:33.739Z,95781.25
2024-03-02T16:32:01.845Z,95780.38
2024-03-02T16:34:28.539Z,95780.47
2024-03-02T16:36:55.339Z,95779.09
2024-03-02T16:39:21.840Z,95781.00
2024-03-02T16:41:48.460Z,95780.28
2024-03-02T16:44:15.211Z,95783.88
2024-03-02T16:46:41.965Z,95778.41
2024-03-02T16:49:08.720Z,95781.25
2024-03-02T16:51:42.762Z,95782.34
2024-03-02T16:54:09.742Z,95782.94
2024-03-02T16:56:44.315Z,95783.84
2024-03-02T16:59:11.654Z,95780.59
2024-03-02T17:01:38.440Z,95778.47
2024-03-02T17:04:06.780Z,95777.78
2024-03-02T17:06:33.545Z,95783.47
2024-03-02T17:09:00.317Z,95777.94
2024-03-02T17:11:26.965Z,95779.97
2024-03-02T17:13:58.301Z,95775.69
2024-03-02T17:16:25.744Z,95787.13
2024-03-02T17:18:52.931Z,95783.22
2024-03-02T17:21:19.471Z,95783.28
2024-03-02T17:23:45.964Z,95779.25
2024-03-02T17:26:12.410Z,95773.47
2024-03-02T17:28:38.961Z,95779.66
2024-03-02T17:31:05.791Z,95777.22
2024-03-02T17:33:32.416Z,95781.88
2024-03-02T17:35:59.088Z,95788.13
2024-03-02T17:38:25.577Z,95793.88
2024-03-02T17:40:52.107Z,95796.56
2024-03-02T17:43:18.651Z,95790.56
2024-03-02T17:45:45.244Z,95779.78
2024-03-02T17:48:13.042Z,95772.78
2024-03-02T17:50:39.681Z,95765.56
2024-03-02T17:53:06.385Z,95755.75
2024-03-02T17:55:32.954Z,95742.16
2024-03-02T17:57:59.656Z,95745.72
2024-03-02T18:00:26.491Z,95757.94
2024-03-02T18:02:53.036Z,95769.91
2024-03-02T18:05:19.508Z,95774.56
2024-03-02T18:07:46.072Z,95767.13
2024-03-02T18:10:12.748Z,95754.56
2024-03-02T18:12:39.602Z,95758.31
2024-03-02T18:15:08.342Z,95751.06
2024-03-02T18:17:35.914Z,95754.28
2024-03-02T18:20:05.529Z,95751.59
2024-03-02T18:22:33.200Z,95750.69
2024-03-02T18:25:00.594Z,95750.94
2024-03-02T18:27:28.022Z,95754.44
2024-03-02T18:29:55.184Z,95749.56
2024-03-02T18:32:21.908Z,95740.34
2024-03-02T18:34:48.479Z,95738.19
2024-03-02T18:37:16.286Z,95747.78
2024-03-02T18:39:43.006Z,95752.44
2024-03-02T18:42:09.468Z,95751.38
2024-03-02T18:44:35.948Z,95756.69
2024-03-02T18:47:02.436Z,95754.31
2024-03-02T18:49:28.983Z,95760.22
2024-03-02T18:51:55.675Z,95758.75
2024-03-02T18:54:22.225Z,95751.38
2024-03-02T18:56:48.929Z,95748.03
2024-03-02T18:59:15.487Z,95744.00
2024-03-02T19:01:42.207Z,95741.09
2024-03-02T19:04:08.914Z,95733.91
2024-03-02T19:06:35.484Z,95733.31
2024-03-02T19:09:02.083Z,95730.69
2024-03-02T19:11:28.654Z,95737.22
2024-03-02T19:13:55.165Z,95739.38
2024-03-02T19:16:22.355Z,95738.63
2024-03-02T19:18:48.903Z,95737.34
2024-03-02T19:21:15.537Z,95729.59
2024-03-02T19:23:45.197Z,95739.59
2024-03-02T19:26:18.532Z,95727.97
2024-03-02T19:28:46.144Z,95733.97
2024-03-02T19:31:14.401Z,95735.72
2024-03-02T19:33:41.037Z,95731.31
2024-03-02T19:36:07.918Z,95729.75
2024-03-02T19:38:37.779Z,95730.81
2024-03-02T19:41:05.779Z,95736.09
2024-03-02T19:43:32.321Z,95729.97
2024-03-02T19:45:58.908Z,95729.75
2024-03-02T19:48:25.446Z,95738.16
2024-03-02T19:50:51.994Z,95733.41
2024-03-02T19:53:18.455Z,95728.28
2024-03-02T19:55:45.455Z,95724.81
2024-03-02T19:58:12.349Z,95728.66
2024-03-02T20:00:39.249Z,95711.41
2024-03-02T20:03:05.922Z,95709.34
2024-03-02T20:05:32.802Z,95710.97
2024-03-02T20:07:59.296Z,95712.56
2024-03-02T20:10:25.766Z,95707.78
2024-03-02T20:12:52.351Z,95702.97
2024-03-02T20:15:20.634Z,95710.78
2024-03-02T20:17:48.172Z,95704.84
2024-03-02T20:20:16.879Z,95704.84
2024-03-02T20:22:43.905Z,95714.78
2024-03-02T20:25:14.275Z,95704.53
2024-03-02T20:27:44.580Z,95706.44
2024-03-02T20:30:12.102Z,95703.44
2024-03-02T20:32:39.474Z,95697.25
2024-03-02T20:35:06.797Z,95696.41
2024-03-02T20:37:33.497Z,95698.31
2024-03-02T20:40:00.397Z,95691.53
2024-03-02T20:42:27.317Z,95689.63
2024-03-02T20:44:53.910Z,95684.78
2024-03-02T20:47:20.658Z,95675.88
2024-03-02T20:49:47.200Z,95678.03
2024-03-02T20:52:13.880Z,95676.41
2024-03-02T20:54:40.461Z,95672.63
2024-03-02T20:57:07.299Z,95668.91
2024-03-02T20:59:34.787Z,95667.00
2024-03-02T21:02:03.415Z,95667.84
2024-03-02T21:04:29.991Z,95664.91
2024-03-02T21:06:56.607Z,95663.56
2024-03-02T21:09:23.164Z,95662.78
2024-03-02T21:11:49.791Z,95670.84
2024-03-02T21:14:16.322Z,95664.66
2024-03-02T21:16:43.478Z,95664.44
2024-03-02T21:19:10.221Z,95648.09
2024-03-02T21:21:38.910Z,95647.31
2024-03-02T21:24:05.612Z,95652.69
2024-03-02T21:26:32.431Z,95653.50
2024-03-02T21:28:58.938Z,95663.97
2024-03-02T21:31:25.482Z,95671.19
2024-03-02T21:33:52.013Z,95667.44
2024-03-02T21:36:18.504Z,95675.75
2024-03-02T21:38:45.042Z,95668.25
2024-03-02T21:41:11.532Z,95658.53
2024-03-02T21:43:38.517Z,95661.00
2024-03-02T21:46:05.105Z,95654.53
2024-03-02T21:48:31.654Z,95649.69
2024-03-02T21:50:58.455Z,95655.75
2024-03-02T21:53:24.965Z,95667.22
2024-03-02T21:55:51.543Z,95656.25
2024-03-02T21:58:18.230Z,95666.16
2024-03-02T22:00:44.872Z,95660.00
2024-03-02T22:03:11.334Z,95665.66
2024-03-02T22:05:37.918Z,95657.91
2024-03-02T22:08:04.650Z,95650.38
2024-03-02T22:10:31.233Z,95660.53
2024-03-02T22:12:57.789Z,95655.16
2024-03-02T22:15:24.390Z,95661.00
2024-03-02T22:17:51.829Z,95651.00
2024-03-02T22:20:18.313Z,95660.41
2024-03-02T22:22:44.797Z,95658.22
2024-03-02T22:25:11.510Z,95659.47
2024-03-02T22:27:41.972Z,95659.69
2024-03-02T22:30:09.406Z,95662.06
2024-03-02T22:32:35.890Z,95668.16
2024-03-02T22:35:02.382Z,95661.75
2024-03-02T22:37:28.892Z,95656.09
2024-03-02T22:39:55.429Z,95649.38
2024-03-02T22:42:21.883Z,95651.44
2024-03-02T22:44:48.342Z,95653.88
2024-03-02T22:47:14.817Z,95647.16
2024-03-02T22:49:41.351Z,95643.38
2024-03-02T22:52:07.848Z,95642.03
2024-03-02T22:54:34.369Z,95645.59
2024-03-02T22:57:02.114Z,95649.38
2024-03-02T22:59:28.774Z,95651.31
2024-03-02T23:01:55.606Z,95648.81
2024-03-02T23:04:22.382Z,95646.69
2024-03-02T23:06:49.555Z,95658.47
2024-03-02T23:09:16.224Z,95656.38
2024-03-02T23:11:42.663Z,95646.53
2024-03-02T23:14:09.202Z,95637.88
2024-03-02T23:16:38.123Z,95641.69
2024-03-02T23:19:04.706Z,95636.22
2024-03-02T23:21:31.295Z,95628.53
2024-03-02T23:23:58.687Z,95622.16
2024-03-02T23:26:26.093Z,95615.75
2024-03-02T23:28:52.765Z,95620.66
2024-03-02T23:31:19.650Z,95617.28
2024-03-02T23:33:48.256Z,95627.00
2024-03-02T23:36:15.103Z,95629.22
2024-03-02T23:38:41.673Z,95643.88
2024-03-02T23:41:08.146Z,95639.88
2024-03-02T23:43:38.309Z,95645.75
2024-03-02T23:46:05.988Z,95652.72
2024-03-02T23:48:32.614Z,95658.34
2024-03-02T23:50:59.184Z,95652.63
2024-03-02T23:53:25.758Z,95647.69
2024-03-02T23:55:53.245Z,95646.69
2024-03-02T23:58:20.636Z,95643.44
